createdAt,value
2018-01-23T00:00:09.345Z,16.30
2018-01-23T00:01:09.333Z,16.10
2018-01-23T00:02:09.331Z,15.90
2018-01-23T00:03:09.352Z,15.60
2018-01-23T00:04:09.304Z,15.30
2018-01-23T00:05:09.295Z,16.60
2018-01-23T00:06:09.280Z,16.20
2018-01-23T00:07:09.275Z,15.60
2018-01-23T00:08:09.260Z,16.10
2018-01-23T00:09:09.252Z,16.30
2018-01-23T00:10:09.241Z,16.30
2018-01-23T00:11:09.232Z,15.80
2018-01-23T00:12:09.218Z,15.90
2018-01-23T00:13:09.208Z,16.20
2018-01-23T00:14:09.196Z,15.60
2018-01-23T00:15:09.187Z,15.50
2018-01-23T00:16:09.179Z,16.60
2018-01-23T00:17:09.165Z,15.30
2018-01-23T00:18:09.155Z,15.40
2018-01-23T00:19:09.220Z,15.40
2018-01-23T00:20:09.211Z,15.40
2018-01-23T00:21:13.198Z,15.00
2018-01-23T00:22:11.951Z,15.90
2018-01-23T00:23:11.895Z,15.20
2018-01-23T00:24:09.089Z,16.50
2018-01-23T00:25:09.086Z,15.20
2018-01-23T00:26:09.088Z,15.20
2018-01-23T00:27:09.060Z,15.90
2018-01-23T00:28:09.052Z,15.20
2018-01-23T00:29:09.040Z,14.80
2018-01-23T00:30:09.030Z,16.00
2018-01-23T00:31:09.022Z,15.10
2018-01-23T00:32:09.008Z,15.50
2018-01-23T00:33:09.000Z,15.10
2018-01-23T00:34:08.987Z,14.40
2018-01-23T00:35:08.979Z,15.00
2018-01-23T00:36:08.964Z,14.90
2018-01-23T00:37:08.955Z,13.80
2018-01-23T00:38:08.946Z,14.70
2018-01-23T00:39:08.935Z,15.40
2018-01-23T00:40:08.925Z,15.10
2018-01-23T00:41:08.917Z,14.60
2018-01-23T00:42:08.901Z,14.80
2018-01-23T00:43:08.892Z,14.40
2018-01-23T00:44:08.883Z,14.70
2018-01-23T00:45:08.874Z,14.90
2018-01-23T00:46:08.863Z,14.40
2018-01-23T00:47:08.852Z,14.90
2018-01-23T00:48:08.840Z,14.60
2018-01-23T00:49:08.853Z,14.80
2018-01-23T00:50:08.817Z,15.10
2018-01-23T00:51:08.814Z,13.30
2018-01-23T00:52:08.799Z,15.40
2018-01-23T00:53:08.792Z,14.90
2018-01-23T00:54:08.777Z,14.00
2018-01-23T00:55:08.770Z,13.70
2018-01-23T00:56:08.757Z,13.70
2018-01-23T00:57:08.750Z,13.60
2018-01-23T00:58:08.736Z,13.50
2018-01-23T00:59:08.727Z,14.30
2018-01-23T01:00:08.719Z,14.40
2018-01-23T01:01:08.710Z,14.20
2018-01-23T01:02:08.700Z,14.90
2018-01-23T01:03:08.688Z,14.10
2018-01-23T01:04:08.684Z,13.70
2018-01-23T01:05:08.668Z,14.60
2018-01-23T01:06:08.693Z,13.30
2018-01-23T01:07:08.645Z,15.00
2018-01-23T01:08:08.639Z,13.50
2018-01-23T01:09:08.626Z,14.60
2018-01-23T01:10:08.617Z,14.30
2018-01-23T01:11:08.608Z,13.70
2018-01-23T01:12:08.610Z,13.70
2018-01-23T01:13:08.585Z,13.40
2018-01-23T01:14:08.580Z,14.10
2018-01-23T01:15:08.564Z,14.30
2018-01-23T01:16:08.554Z,14.10
2018-01-23T01:17:08.545Z,13.60
2018-01-23T01:18:08.528Z,14.40
2018-01-23T01:19:08.523Z,14.70
2018-01-23T01:20:08.515Z,13.40
2018-01-23T01:21:08.503Z,13.80
2018-01-23T01:22:08.488Z,14.00
2018-01-23T01:23:08.873Z,14.00
2018-01-23T01:24:09.182Z,13.30
2018-01-23T01:25:08.476Z,14.00
2018-01-23T01:26:08.605Z,14.20
2018-01-23T01:27:08.440Z,13.90
2018-01-23T01:28:08.471Z,14.80
2018-01-23T01:29:08.498Z,15.30
2018-01-23T01:30:08.629Z,13.70
2018-01-23T01:31:08.484Z,14.70
2018-01-23T01:32:08.415Z,13.80
2018-01-23T01:33:08.412Z,14.00
2018-01-23T01:34:08.369Z,15.00
2018-01-23T01:35:08.357Z,14.30
2018-01-23T01:36:08.350Z,14.60
2018-01-23T01:37:08.344Z,14.80
2018-01-23T01:38:08.326Z,15.00
2018-01-23T01:39:08.318Z,14.30
2018-01-23T01:40:08.302Z,14.30
2018-01-23T01:41:08.299Z,14.10
2018-01-23T01:42:08.293Z,15.50
2018-01-23T01:43:08.286Z,14.90
2018-01-23T01:44:08.266Z,15.60
2018-01-23T01:45:08.261Z,15.30
2018-01-23T01:46:08.251Z,15.10
2018-01-23T01:47:08.238Z,14.20
2018-01-23T01:48:08.252Z,14.30
2018-01-23T01:49:08.231Z,14.60
2018-01-23T01:50:08.204Z,15.70
2018-01-23T01:51:08.201Z,15.50
2018-01-23T01:52:08.190Z,15.00
2018-01-23T01:53:08.175Z,15.10
2018-01-23T01:54:08.158Z,14.10
2018-01-23T01:55:08.160Z,16.20
2018-01-23T01:56:08.146Z,14.40
2018-01-23T01:57:08.129Z,14.90
2018-01-23T01:58:08.122Z,15.60
2018-01-23T01:59:08.121Z,14.90
2018-01-23T02:00:08.104Z,15.10
2018-01-23T02:01:08.095Z,15.40
2018-01-23T02:02:08.087Z,13.70
2018-01-23T02:03:08.071Z,14.30
2018-01-23T02:04:08.063Z,14.90
2018-01-23T02:05:08.048Z,15.00
2018-01-23T02:06:08.040Z,15.20
2018-01-23T02:07:08.032Z,15.80
2018-01-23T02:08:08.025Z,14.70
2018-01-23T02:09:08.009Z,14.70
2018-01-23T02:10:08.000Z,14.50
2018-01-23T02:11:07.986Z,14.70
2018-01-23T02:12:07.974Z,15.20
2018-01-23T02:13:07.972Z,14.30
2018-01-23T02:14:07.973Z,15.10
2018-01-23T02:15:07.966Z,14.90
2018-01-23T02:16:07.939Z,14.60
2018-01-23T02:17:07.926Z,13.80
2018-01-23T02:18:07.912Z,14.50
2018-01-23T02:19:07.901Z,15.20
2018-01-23T02:20:07.913Z,14.70
2018-01-23T02:21:07.886Z,14.00
2018-01-23T02:22:07.879Z,15.80
2018-01-23T02:23:07.858Z,14.90
2018-01-23T02:24:07.849Z,16.00
2018-01-23T02:25:07.842Z,14.90
2018-01-23T02:26:07.839Z,15.40
2018-01-23T02:27:07.850Z,15.20
2018-01-23T02:28:07.819Z,15.50
2018-01-23T02:29:07.799Z,14.70
2018-01-23T02:30:07.791Z,15.70
2018-01-23T02:31:07.790Z,14.40
2018-01-23T02:32:07.775Z,14.80
2018-01-23T02:33:07.758Z,15.30
2018-01-23T02:34:07.761Z,15.50
2018-01-23T02:35:07.738Z,15.40
2018-01-23T02:36:07.739Z,14.50
2018-01-23T02:37:07.749Z,15.50
2018-01-23T02:38:07.705Z,14.50
2018-01-23T02:39:07.698Z,15.60
2018-01-23T02:40:07.686Z,14.80
2018-01-23T02:41:07.677Z,15.30
2018-01-23T02:42:07.671Z,15.70
2018-01-23T02:43:07.655Z,16.20
2018-01-23T02:44:07.644Z,15.40
2018-01-23T02:45:07.636Z,16.80
2018-01-23T02:46:07.630Z,15.60
2018-01-23T02:47:07.612Z,15.00
2018-01-23T02:48:07.602Z,16.50
2018-01-23T02:49:07.593Z,15.30
2018-01-23T02:50:07.585Z,15.50
2018-01-23T02:51:07.573Z,15.60
2018-01-23T02:52:07.564Z,15.40
2018-01-23T02:53:07.553Z,15.40
2018-01-23T02:54:07.539Z,16.80
2018-01-23T02:55:07.531Z,16.20
2018-01-23T02:56:07.522Z,15.10
2018-01-23T02:57:07.511Z,15.80
2018-01-23T02:58:07.502Z,16.80
2018-01-23T02:59:07.498Z,16.20
2018-01-23T03:00:07.475Z,15.60
2018-01-23T03:01:07.469Z,16.40
2018-01-23T03:02:07.460Z,17.50
2018-01-23T03:03:07.450Z,15.10
2018-01-23T03:04:07.445Z,15.90
2018-01-23T03:05:07.427Z,15.90
2018-01-23T03:06:07.421Z,15.60
2018-01-23T03:07:07.405Z,17.40
2018-01-23T03:08:07.396Z,16.00
2018-01-23T03:09:07.388Z,16.30
2018-01-23T03:10:07.381Z,16.80
2018-01-23T03:11:07.365Z,15.80
2018-01-23T03:12:07.354Z,16.40
2018-01-23T03:13:07.345Z,16.70
2018-01-23T03:14:07.332Z,16.40
2018-01-23T03:15:07.325Z,15.70
2018-01-23T03:16:07.320Z,16.20
2018-01-23T03:17:07.305Z,16.80
2018-01-23T03:18:07.295Z,17.10
2018-01-23T03:19:07.283Z,16.10
2018-01-23T03:20:07.275Z,16.00
2018-01-23T03:21:07.279Z,17.80
2018-01-23T03:22:07.256Z,17.40
2018-01-23T03:23:07.241Z,17.10
2018-01-23T03:24:07.235Z,16.30
2018-01-23T03:25:07.219Z,16.80
2018-01-23T03:26:07.213Z,17.60
2018-01-23T03:27:07.199Z,16.40
2018-01-23T03:28:07.189Z,17.80
2018-01-23T03:29:07.179Z,17.30
2018-01-23T03:30:07.174Z,16.90
2018-01-23T03:31:07.159Z,16.10
2018-01-23T03:32:07.149Z,17.10
2018-01-23T03:33:07.138Z,16.40
2018-01-23T03:34:07.129Z,17.00
2018-01-23T03:35:07.115Z,16.30
2018-01-23T03:36:07.105Z,16.70
2018-01-23T03:37:07.097Z,17.00
2018-01-23T03:38:07.085Z,16.40
2018-01-23T03:39:07.077Z,16.80
2018-01-23T03:40:07.066Z,15.70
2018-01-23T03:41:07.069Z,16.30
2018-01-23T03:42:07.048Z,16.00
2018-01-23T03:43:07.040Z,16.90
2018-01-23T03:44:07.028Z,17.20
2018-01-23T03:45:07.013Z,18.00
2018-01-23T03:46:07.005Z,17.00
2018-01-23T03:47:06.991Z,17.20
2018-01-23T03:48:06.985Z,15.70
2018-01-23T03:49:06.971Z,16.70
2018-01-23T03:50:06.959Z,16.50
2018-01-23T03:51:06.953Z,17.00
2018-01-23T03:52:06.941Z,16.70
2018-01-23T03:53:06.931Z,18.10
2018-01-23T03:54:06.925Z,16.30
2018-01-23T03:55:06.907Z,16.20
2018-01-23T03:56:06.900Z,16.70
2018-01-23T03:57:06.905Z,16.30
2018-01-23T03:58:06.881Z,16.70
2018-01-23T03:59:06.872Z,17.40
2018-01-23T04:00:06.862Z,16.70
2018-01-23T04:01:06.855Z,17.00
2018-01-23T04:02:06.838Z,16.40
2018-01-23T04:03:06.828Z,16.80
2018-01-23T04:04:06.820Z,17.50
2018-01-23T04:05:06.807Z,16.90
2018-01-23T04:06:06.803Z,16.50
2018-01-23T04:07:06.795Z,17.10
2018-01-23T04:08:06.774Z,16.70
2018-01-23T04:09:06.767Z,17.10
2018-01-23T04:10:06.759Z,17.10
2018-01-23T04:11:06.747Z,16.30
2018-01-23T04:12:06.738Z,16.90
2018-01-23T04:13:06.726Z,16.60
2018-01-23T04:14:06.717Z,17.10
2018-01-23T04:15:06.704Z,17.70
2018-01-23T04:16:06.694Z,17.20
2018-01-23T04:17:06.686Z,16.50
2018-01-23T04:18:06.687Z,17.50
2018-01-23T04:19:06.663Z,17.40
2018-01-23T04:20:06.655Z,17.10
2018-01-23T04:21:06.650Z,17.30
2018-01-23T04:22:06.633Z,16.90
2018-01-23T04:23:06.624Z,15.90
2018-01-23T04:24:06.615Z,16.60
2018-01-23T04:25:06.602Z,15.50
2018-01-23T04:26:06.594Z,16.70
2018-01-23T04:27:06.582Z,16.80
2018-01-23T04:28:06.574Z,17.20
2018-01-23T04:29:06.560Z,17.00
2018-01-23T04:30:06.554Z,17.40
2018-01-23T04:31:06.539Z,16.90
2018-01-23T04:32:06.530Z,16.80
2018-01-23T04:33:06.527Z,17.20
2018-01-23T04:34:06.518Z,17.00
2018-01-23T04:35:06.498Z,17.10
2018-01-23T04:36:06.493Z,16.50
2018-01-23T04:37:06.479Z,15.50
2018-01-23T04:38:06.472Z,16.40
2018-01-23T04:39:06.465Z,17.40
2018-01-23T04:40:06.500Z,16.50
2018-01-23T04:41:06.453Z,17.10
2018-01-23T04:42:06.456Z,16.70
2018-01-23T04:43:06.427Z,16.60
2018-01-23T04:44:06.409Z,17.20
2018-01-23T04:45:06.397Z,17.60
2018-01-23T04:46:06.390Z,17.10
2018-01-23T04:47:13.328Z,17.00
2018-01-23T04:48:06.365Z,16.30
2018-01-23T04:49:06.354Z,18.10
2018-01-23T04:50:06.347Z,17.30
2018-01-23T04:51:06.336Z,16.10
2018-01-23T04:52:06.326Z,17.30
2018-01-23T04:53:06.316Z,16.90
2018-01-23T04:54:06.306Z,18.10
2018-01-23T04:55:06.295Z,17.40
2018-01-23T04:56:06.283Z,16.80
2018-01-23T04:57:06.278Z,18.00
2018-01-23T04:58:06.264Z,17.70
2018-01-23T04:59:06.252Z,17.10
2018-01-23T05:00:06.251Z,17.50
2018-01-23T05:01:06.233Z,18.10
2018-01-23T05:02:06.223Z,17.80
2018-01-23T05:03:06.214Z,16.90
2018-01-23T05:04:06.203Z,17.60
2018-01-23T05:05:06.193Z,18.40
2018-01-23T05:06:06.183Z,16.30
2018-01-23T05:07:06.180Z,17.90
2018-01-23T05:08:06.160Z,18.20
2018-01-23T05:09:06.161Z,18.60
2018-01-23T05:10:06.136Z,18.80
2018-01-23T05:11:06.126Z,17.80
2018-01-23T05:12:06.118Z,18.50
2018-01-23T05:13:06.105Z,17.50
2018-01-23T05:14:06.099Z,17.30
2018-01-23T05:15:06.088Z,17.80
2018-01-23T05:16:06.079Z,17.80
2018-01-23T05:17:06.064Z,17.60
2018-01-23T05:18:06.057Z,18.40
2018-01-23T05:19:06.042Z,17.50
2018-01-23T05:20:06.036Z,17.50
2018-01-23T05:21:06.030Z,17.80
2018-01-23T05:22:06.023Z,17.70
2018-01-23T05:23:05.997Z,17.80
2018-01-23T05:24:05.994Z,17.70
2018-01-23T05:25:05.978Z,18.10
2018-01-23T05:26:05.975Z,18.50
2018-01-23T05:27:05.965Z,18.00
2018-01-23T05:28:05.950Z,18.70
2018-01-23T05:29:05.940Z,18.80
2018-01-23T05:30:05.934Z,17.90
2018-01-23T05:31:05.920Z,19.40
2018-01-23T05:32:05.911Z,18.80
2018-01-23T05:33:05.903Z,19.20
2018-01-23T05:34:05.891Z,18.70
2018-01-23T05:35:05.880Z,18.40
2018-01-23T05:36:05.874Z,19.20
2018-01-23T05:37:05.863Z,19.30
2018-01-23T05:38:05.876Z,19.50
2018-01-23T05:39:05.834Z,19.80
2018-01-23T05:40:05.826Z,19.70
2018-01-23T05:41:05.816Z,19.90
2018-01-23T05:42:05.807Z,21.50
2018-01-23T05:43:05.793Z,20.70
2018-01-23T05:44:05.779Z,22.20
2018-01-23T05:45:05.775Z,21.70
2018-01-23T05:46:05.762Z,21.80
2018-01-23T05:47:05.753Z,22.00
2018-01-23T05:48:05.742Z,23.00
2018-01-23T05:49:05.728Z,21.80
2018-01-23T05:50:05.716Z,22.10
2018-01-23T05:51:05.705Z,23.80
2018-01-23T05:52:05.699Z,24.20
2018-01-23T05:53:05.688Z,23.20
2018-01-23T05:54:05.679Z,23.30
2018-01-23T05:55:05.664Z,23.20
2018-01-23T05:56:05.659Z,23.10
2018-01-23T05:57:05.642Z,22.90
2018-01-23T05:58:05.636Z,22.90
2018-01-23T05:59:05.622Z,22.70
2018-01-23T06:00:05.644Z,23.70
2018-01-23T06:01:05.601Z,22.80
2018-01-23T06:02:05.591Z,23.00
2018-01-23T06:03:05.580Z,22.30
2018-01-23T06:04:05.581Z,21.80
2018-01-23T06:05:05.557Z,22.80
2018-01-23T06:06:05.549Z,20.60
2018-01-23T06:07:05.538Z,22.70
2018-01-23T06:08:05.524Z,21.70
2018-01-23T06:09:05.516Z,22.30
2018-01-23T06:10:05.515Z,22.30
2018-01-23T06:11:05.493Z,34.60
2018-01-23T06:12:05.488Z,24.20
2018-01-23T06:13:05.482Z,24.30
2018-01-23T06:14:05.464Z,22.70
2018-01-23T06:15:05.484Z,26.30
2018-01-23T06:16:05.472Z,24.50
2018-01-23T06:17:05.434Z,23.10
2018-01-23T06:18:05.452Z,30.20
2018-01-23T06:19:05.416Z,24.30
2018-01-23T06:20:05.402Z,24.80
2018-01-23T06:21:05.393Z,26.90
2018-01-23T06:22:05.382Z,23.40
2018-01-23T06:23:05.365Z,29.00
2018-01-23T06:24:05.354Z,34.80
2018-01-23T06:25:05.348Z,30.10
2018-01-23T06:26:05.339Z,29.60
2018-01-23T06:27:05.325Z,24.70
2018-01-23T06:28:05.369Z,25.00
2018-01-23T06:29:05.303Z,23.80
2018-01-23T06:30:05.295Z,23.10
2018-01-23T06:31:05.280Z,23.00
2018-01-23T06:32:05.272Z,22.70
2018-01-23T06:33:05.263Z,22.70
2018-01-23T06:34:05.246Z,22.70
2018-01-23T06:35:05.238Z,23.00
2018-01-23T06:36:05.229Z,23.80
2018-01-23T06:37:05.219Z,24.20
2018-01-23T06:38:05.211Z,24.40
2018-01-23T06:39:05.196Z,23.40
2018-01-23T06:40:05.195Z,23.60
2018-01-23T06:41:05.178Z,23.80
2018-01-23T06:42:05.165Z,24.30
2018-01-23T06:43:05.154Z,23.40
2018-01-23T06:44:05.146Z,24.10
2018-01-23T06:45:05.132Z,24.10
2018-01-23T06:46:05.124Z,24.00
2018-01-23T06:47:05.111Z,23.70
2018-01-23T06:48:05.100Z,23.70
2018-01-23T06:49:05.090Z,24.50
2018-01-23T06:50:05.088Z,25.00
2018-01-23T06:51:05.072Z,24.20
2018-01-23T06:52:05.060Z,24.30
2018-01-23T06:53:05.050Z,23.60
2018-01-23T06:54:05.046Z,24.40
2018-01-23T06:55:05.030Z,23.30
2018-01-23T06:56:05.045Z,23.70
2018-01-23T06:57:05.023Z,24.30
2018-01-23T06:58:04.994Z,23.70
2018-01-23T06:59:05.044Z,23.80
2018-01-23T07:00:04.975Z,24.30
2018-01-23T07:01:04.970Z,24.00
2018-01-23T07:02:04.980Z,24.60
2018-01-23T07:03:04.945Z,23.70
2018-01-23T07:04:04.932Z,24.40
2018-01-23T07:05:04.927Z,23.30
2018-01-23T07:06:04.910Z,24.90
2018-01-23T07:07:04.901Z,23.40
2018-01-23T07:08:04.896Z,24.40
2018-01-23T07:09:04.882Z,23.00
2018-01-23T07:10:04.870Z,24.80
2018-01-23T07:11:04.859Z,25.00
2018-01-23T07:12:04.848Z,24.40
2018-01-23T07:13:04.854Z,24.60
2018-01-23T07:14:04.829Z,24.50
2018-01-23T07:15:04.820Z,24.90
2018-01-23T07:16:04.807Z,23.70
2018-01-23T07:17:04.793Z,26.70
2018-01-23T07:18:04.837Z,24.90
2018-01-23T07:19:04.773Z,24.80
2018-01-23T07:20:04.777Z,24.30
2018-01-23T07:21:04.755Z,24.60
2018-01-23T07:22:04.746Z,24.10
2018-01-23T07:23:04.732Z,23.90
2018-01-23T07:24:04.736Z,25.10
2018-01-23T07:25:04.718Z,24.90
2018-01-23T07:26:04.704Z,25.40
2018-01-23T07:27:04.693Z,25.80
2018-01-23T07:28:04.680Z,23.90
2018-01-23T07:29:04.673Z,24.10
2018-01-23T07:30:04.667Z,23.70
2018-01-23T07:31:04.644Z,24.50
2018-01-23T07:32:04.641Z,24.90
2018-01-23T07:33:04.629Z,24.20
2018-01-23T07:34:04.618Z,24.40
2018-01-23T07:35:04.608Z,24.20
2018-01-23T07:36:04.597Z,23.90
2018-01-23T07:37:04.587Z,24.80
2018-01-23T07:38:04.573Z,23.60
2018-01-23T07:39:04.572Z,23.60
2018-01-23T07:40:04.551Z,23.20
2018-01-23T07:41:04.544Z,23.90
2018-01-23T07:42:04.536Z,24.20
2018-01-23T07:43:04.519Z,24.60
2018-01-23T07:44:04.513Z,23.00
2018-01-23T07:45:04.499Z,23.30
2018-01-23T07:46:04.490Z,24.10
2018-01-23T07:47:04.484Z,24.50
2018-01-23T07:48:04.471Z,24.50
2018-01-23T07:49:04.461Z,23.60
2018-01-23T07:50:04.449Z,24.00
2018-01-23T07:51:04.435Z,23.30
2018-01-23T07:52:04.431Z,24.10
2018-01-23T07:53:04.420Z,24.00
2018-01-23T07:54:04.422Z,23.30
2018-01-23T07:55:04.420Z,22.60
2018-01-23T07:56:04.387Z,23.10
2018-01-23T07:57:04.375Z,23.80
2018-01-23T07:58:04.367Z,23.60
2018-01-23T07:59:04.350Z,23.00
2018-01-23T08:00:04.345Z,22.30
2018-01-23T08:01:04.387Z,22.90
2018-01-23T08:02:04.324Z,23.70
2018-01-23T08:03:04.312Z,23.40
2018-01-23T08:04:04.298Z,22.90
2018-01-23T08:05:04.291Z,23.60
2018-01-23T08:06:04.299Z,22.60
2018-01-23T08:07:04.267Z,22.60
2018-01-23T08:08:04.261Z,23.00
2018-01-23T08:09:04.251Z,22.10
2018-01-23T08:10:04.239Z,22.50
2018-01-23T08:11:04.228Z,22.30
2018-01-23T08:12:04.218Z,21.70
2018-01-23T08:13:04.209Z,21.80
2018-01-23T08:14:04.198Z,22.50
2018-01-23T08:15:04.193Z,21.10
2018-01-23T08:16:04.177Z,21.90
2018-01-23T08:17:04.167Z,22.10
2018-01-23T08:18:04.155Z,22.00
2018-01-23T08:19:04.142Z,22.20
2018-01-23T08:20:04.136Z,21.50
2018-01-23T08:21:04.126Z,21.00
2018-01-23T08:22:04.113Z,20.80
2018-01-23T08:23:04.107Z,21.20
2018-01-23T08:24:04.095Z,21.70
2018-01-23T08:25:04.084Z,21.80
2018-01-23T08:26:04.076Z,21.90
2018-01-23T08:27:04.072Z,20.70
2018-01-23T08:28:04.052Z,22.00
2018-01-23T08:29:04.048Z,21.80
2018-01-23T08:30:04.033Z,21.30
2018-01-23T08:31:04.017Z,22.80
2018-01-23T08:32:04.008Z,21.80
2018-01-23T08:33:03.997Z,21.70
2018-01-23T08:34:04.001Z,19.90
2018-01-23T08:35:04.008Z,20.00
2018-01-23T08:36:04.002Z,19.80
2018-01-23T08:37:03.976Z,20.80
2018-01-23T08:38:03.949Z,20.60
2018-01-23T08:39:03.940Z,20.10
2018-01-23T08:40:03.930Z,21.10
2018-01-23T08:41:03.926Z,20.90
2018-01-23T08:42:03.909Z,21.30
2018-01-23T08:43:03.945Z,20.80
2018-01-23T08:44:03.894Z,20.50
2018-01-23T08:45:03.894Z,21.30
2018-01-23T08:46:03.879Z,20.50
2018-01-23T08:47:03.860Z,21.40
2018-01-23T08:48:03.872Z,20.70
2018-01-23T08:49:03.835Z,20.30
2018-01-23T08:50:03.825Z,19.80
2018-01-23T08:51:03.824Z,20.40
2018-01-23T08:52:03.807Z,19.30
2018-01-23T08:53:03.793Z,20.00
2018-01-23T08:54:03.782Z,19.10
2018-01-23T08:55:03.772Z,19.70
2018-01-23T08:56:03.770Z,20.60
2018-01-23T08:57:03.765Z,20.00
2018-01-23T08:58:03.739Z,19.10
2018-01-23T08:59:03.733Z,18.90
2018-01-23T09:00:03.719Z,20.40
2018-01-23T09:01:03.735Z,19.00
2018-01-23T09:02:03.703Z,18.90
2018-01-23T09:03:03.701Z,19.70
2018-01-23T09:04:03.681Z,19.00
2018-01-23T09:05:03.802Z,19.10
2018-01-23T09:06:03.670Z,20.20
2018-01-23T09:07:03.651Z,18.80
2018-01-23T09:08:03.654Z,19.10
2018-01-23T09:09:03.641Z,18.70
2018-01-23T09:10:03.619Z,19.20
2018-01-23T09:11:03.610Z,19.20
2018-01-23T09:12:03.604Z,18.20
2018-01-23T09:13:03.592Z,18.40
2018-01-23T09:14:03.584Z,19.30
2018-01-23T09:15:03.566Z,18.60
2018-01-23T09:16:03.559Z,18.00
2018-01-23T09:17:03.551Z,18.70
2018-01-23T09:18:03.537Z,18.30
2018-01-23T09:19:03.529Z,17.80
2018-01-23T09:20:03.530Z,17.90
2018-01-23T09:21:03.514Z,17.70
2018-01-23T09:22:03.497Z,19.00
2018-01-23T09:23:03.494Z,17.90
2018-01-23T09:24:03.483Z,17.60
2018-01-23T09:25:03.485Z,17.80
2018-01-23T09:26:03.460Z,17.00
2018-01-23T09:27:03.450Z,16.10
2018-01-23T09:28:03.438Z,17.40
2018-01-23T09:29:03.428Z,16.20
2018-01-23T09:30:03.479Z,16.80
2018-01-23T09:31:03.408Z,16.40
2018-01-23T09:32:03.400Z,17.80
2018-01-23T09:33:03.394Z,16.90
2018-01-23T09:34:03.384Z,16.50
2018-01-23T09:35:03.371Z,17.60
2018-01-23T09:36:03.372Z,16.30
2018-01-23T09:37:03.350Z,16.80
2018-01-23T09:38:03.345Z,16.60
2018-01-23T09:39:03.329Z,17.40
2018-01-23T09:40:03.319Z,16.30
2018-01-23T09:41:03.307Z,16.70
2018-01-23T09:42:03.298Z,17.10
2018-01-23T09:43:03.288Z,16.90
2018-01-23T09:44:03.283Z,17.70
2018-01-23T09:45:03.316Z,15.90
2018-01-23T09:46:03.259Z,15.50
2018-01-23T09:47:03.245Z,15.80
2018-01-23T09:48:03.239Z,15.80
2018-01-23T09:49:03.240Z,15.80
2018-01-23T09:50:03.215Z,15.90
2018-01-23T09:51:03.209Z,15.80
2018-01-23T09:52:03.199Z,15.80
2018-01-23T09:53:03.195Z,15.80
2018-01-23T09:54:03.182Z,16.50
2018-01-23T09:55:03.174Z,16.10
2018-01-23T09:56:03.158Z,14.20
2018-01-23T09:57:03.146Z,16.10
2018-01-23T09:58:03.137Z,16.30
2018-01-23T09:59:03.125Z,15.60
2018-01-23T10:00:03.119Z,14.30
2018-01-23T10:01:03.106Z,15.70
2018-01-23T10:02:03.104Z,14.90
2018-01-23T10:03:03.084Z,14.70
2018-01-23T10:04:03.078Z,14.20
2018-01-23T10:05:03.067Z,15.10
2018-01-23T10:06:03.060Z,14.10
2018-01-23T10:07:03.047Z,14.60
2018-01-23T10:08:03.038Z,14.60
2018-01-23T10:09:03.031Z,13.70
2018-01-23T10:10:03.030Z,14.70
2018-01-23T10:11:03.008Z,15.20
2018-01-23T10:12:02.999Z,15.00
2018-01-23T10:13:03.041Z,14.70
2018-01-23T10:14:02.982Z,14.20
2018-01-23T10:15:02.970Z,14.20
2018-01-23T10:16:02.963Z,14.00
2018-01-23T10:17:02.947Z,14.90
2018-01-23T10:18:02.939Z,14.30
2018-01-23T10:19:02.929Z,14.50
2018-01-23T10:20:02.923Z,14.80
2018-01-23T10:21:02.908Z,13.80
2018-01-23T10:22:02.921Z,13.80
2018-01-23T10:23:02.920Z,13.70
2018-01-23T10:24:02.876Z,14.20
2018-01-23T10:25:02.871Z,13.70
2018-01-23T10:26:02.859Z,14.00
2018-01-23T10:27:02.844Z,13.30
2018-01-23T10:28:02.841Z,14.10
2018-01-23T10:29:02.834Z,13.10
2018-01-23T10:30:02.816Z,12.90
2018-01-23T10:31:02.810Z,13.10
2018-01-23T10:32:02.801Z,12.50
2018-01-23T10:33:02.793Z,13.00
2018-01-23T10:34:02.787Z,13.50
2018-01-23T10:35:02.781Z,12.50
2018-01-23T10:36:02.762Z,13.50
2018-01-23T10:37:02.753Z,13.20
2018-01-23T10:38:02.740Z,13.20
2018-01-23T10:39:02.742Z,14.30
2018-01-23T10:40:02.749Z,11.90
2018-01-23T10:41:02.713Z,13.00
2018-01-23T10:42:02.706Z,11.80
2018-01-23T10:43:02.692Z,12.10
2018-01-23T10:44:02.686Z,12.60
2018-01-23T10:45:02.675Z,12.90
2018-01-23T10:46:02.664Z,12.60
2018-01-23T10:47:02.655Z,12.50
2018-01-23T10:48:02.646Z,12.90
2018-01-23T10:49:02.638Z,11.80
2018-01-23T10:50:02.631Z,12.50
2018-01-23T10:51:02.663Z,12.10
2018-01-23T10:52:02.603Z,11.50
2018-01-23T10:53:02.597Z,11.30
2018-01-23T10:54:02.593Z,12.30
2018-01-23T10:55:02.575Z,11.80
2018-01-23T10:56:02.570Z,10.80
2018-01-23T10:57:02.561Z,11.90
2018-01-23T10:58:02.545Z,11.50
2018-01-23T10:59:02.536Z,11.70
2018-01-23T11:00:02.537Z,11.70
2018-01-23T11:01:02.517Z,11.70
2018-01-23T11:02:02.515Z,12.00
2018-01-23T11:03:02.498Z,12.50
2018-01-23T11:04:02.497Z,11.90
2018-01-23T11:05:02.483Z,11.50
2018-01-23T11:06:02.470Z,11.10
2018-01-23T11:07:02.471Z,11.40
2018-01-23T11:08:02.455Z,11.60
2018-01-23T11:09:02.444Z,12.40
2018-01-23T11:10:02.436Z,12.60
2018-01-23T11:11:02.421Z,11.60
2018-01-23T11:12:02.416Z,11.50
2018-01-23T11:13:02.404Z,12.10
2018-01-23T11:14:02.397Z,12.30
2018-01-23T11:15:02.388Z,10.80
2018-01-23T11:16:02.377Z,10.80
2018-01-23T11:17:02.369Z,10.80
2018-01-23T11:18:02.359Z,11.70
2018-01-23T11:19:02.376Z,11.40
2018-01-23T11:20:02.344Z,10.70
2018-01-23T11:21:02.336Z,11.80
2018-01-23T11:22:02.319Z,10.80
2018-01-23T11:23:02.308Z,11.30
2018-01-23T11:24:02.302Z,11.10
2018-01-23T11:25:02.294Z,11.30
2018-01-23T11:26:02.290Z,11.10
2018-01-23T11:27:02.276Z,11.50
2018-01-23T11:28:02.268Z,11.60
2018-01-23T11:29:02.257Z,11.30
2018-01-23T11:30:02.247Z,11.00
2018-01-23T11:31:02.242Z,11.30
2018-01-23T11:32:02.229Z,10.90
2018-01-23T11:33:02.213Z,10.00
2018-01-23T11:34:02.205Z,11.60
2018-01-23T11:35:02.197Z,10.30
2018-01-23T11:36:02.191Z,10.90
2018-01-23T11:37:02.181Z,10.70
2018-01-23T11:38:02.171Z,11.20
2018-01-23T11:39:02.162Z,10.80
2018-01-23T11:40:02.151Z,10.10
2018-01-23T11:41:02.139Z,11.40
2018-01-23T11:42:02.134Z,9.70
2018-01-23T11:43:02.126Z,10.60
2018-01-23T11:44:02.114Z,11.20
2018-01-23T11:45:02.111Z,10.50
2018-01-23T11:46:02.097Z,9.90
2018-01-23T11:47:02.087Z,10.70
2018-01-23T11:48:02.092Z,10.00
2018-01-23T11:49:02.071Z,10.30
2018-01-23T11:50:02.062Z,10.10
2018-01-23T11:51:02.053Z,10.20
2018-01-23T11:52:02.044Z,10.20
2018-01-23T11:53:02.033Z,8.90
2018-01-23T11:54:02.021Z,8.90
2018-01-23T11:55:02.022Z,10.10
2018-01-23T11:56:02.010Z,10.20
2018-01-23T11:57:01.996Z,10.00
2018-01-23T11:58:01.989Z,9.40
2018-01-23T11:59:01.978Z,9.20
2018-01-23T12:00:01.970Z,8.60
2018-01-23T12:01:01.957Z,8.90
2018-01-23T12:02:01.953Z,8.60
2018-01-23T12:03:01.945Z,9.00
2018-01-23T12:04:01.937Z,8.80
2018-01-23T12:05:01.929Z,8.30
2018-01-23T12:06:01.921Z,8.00
2018-01-23T12:07:01.945Z,8.40
2018-01-23T12:08:01.898Z,8.90
2018-01-23T12:09:01.893Z,8.20
2018-01-23T12:10:01.888Z,8.50
2018-01-23T12:11:01.879Z,8.30
2018-01-23T12:12:01.867Z,8.20
2018-01-23T12:13:01.863Z,8.10
2018-01-23T12:14:01.859Z,8.40
2018-01-23T12:15:01.850Z,7.80
2018-01-23T12:16:01.843Z,7.40
2018-01-23T12:17:01.829Z,7.90
2018-01-23T12:18:01.821Z,8.50
2018-01-23T12:19:01.812Z,7.50
2018-01-23T12:20:01.804Z,7.30
2018-01-23T12:21:01.796Z,7.10
2018-01-23T12:22:01.784Z,7.10
2018-01-23T12:23:01.779Z,6.80
2018-01-23T12:24:01.772Z,6.90
2018-01-23T12:25:01.766Z,7.00
2018-01-23T12:26:01.756Z,6.50
2018-01-23T12:27:01.747Z,7.20
2018-01-23T12:28:01.740Z,7.20
2018-01-23T12:29:01.726Z,6.90
2018-01-23T12:30:01.723Z,6.80
2018-01-23T12:31:01.712Z,6.00
2018-01-23T12:32:01.704Z,7.20
2018-01-23T12:33:01.694Z,6.20
2018-01-23T12:34:01.688Z,6.00
2018-01-23T12:35:01.676Z,6.10
2018-01-23T12:36:01.675Z,6.20
2018-01-23T12:37:01.662Z,6.20
2018-01-23T12:38:01.654Z,5.70
2018-01-23T12:39:01.645Z,5.90
2018-01-23T12:40:01.636Z,5.30
2018-01-23T12:41:01.626Z,6.10
2018-01-23T12:42:01.617Z,6.00
2018-01-23T12:43:01.608Z,6.00
2018-01-23T12:44:01.603Z,6.20
2018-01-23T12:45:01.592Z,5.80
2018-01-23T12:46:01.587Z,6.10
2018-01-23T12:47:01.575Z,6.30
2018-01-23T12:48:01.575Z,6.10
2018-01-23T12:49:01.565Z,5.60
2018-01-23T12:50:01.552Z,5.70
2018-01-23T12:51:01.544Z,6.00
2018-01-23T12:52:01.535Z,5.50
2018-01-23T12:53:01.521Z,4.90
2018-01-23T12:54:01.517Z,4.90